الصفحة الرئيسية
METAR-TAF:

METAR-TAF

مطار :

مطار ندجيلي

كينشاسا, كونغو

دائرة عرض: 04-23S, خط طول: 015-26E, ارتفاع: 309 متر

مراقبة الطقس الحالي

تاريخ ووقت الإصدار 1ساعة و 30 دقيقة قبل الساعة 03:00UTC
ريح 6 عقدة من الغرب
درجة الحرارة 21°درجة مئوية
الرطوبة 88%
ضغط 1015 hPa
غيوم متفرقة على ارتفاع 1600 قدم
غشاء

METAR: FZAA 180300Z 27006KT 4000M BR SCT016 21/19 Q1015 NOSIG

زمن: 05:30 (04:30 UTC)

توقعات

تاريخ ووقت الإصدار 5ساعات و 30 دقيقة قبل الساعة 23:00UTC
التوقعات صالحة من18 الساعة 00 UTC إلى 19 الساعة 06 UTC
ريح 4 عقدة من الجنوب/الجنوب الغربي
الرؤية: 3000 متر
غيوم مفككة على ارتفاع 1400 قدم
غشاء
من 18 الساعة 1300 UTC
ريح 10 عقدة من الغرب/الشمال الغربي
الرؤية: 6000 متر
غيوم قليلة على ارتفاع 2000 قدم
أصبح
من 18 الساعة 18 UTC إلى 18 الساعة 20 UTC
ريح عقدة من الشمال
الرؤية: 4000 متر
غشاء

TAF: FZAA 172300Z 1800/1906 20004KT 3000 BR BKN014 FM181300 30010KT 6000 NSW FEW020 BECMG 1818/1820 00000KT 4000 BR NSC

أرصاد الطقس والتوقعات من أكثر من 4000 مطار (تقارير الطقس للمطار METAR والتنبؤ بالطقس بالمطارTAF).

المحطات المتاحة هي النقط الصفراء والحمراء على الخريطة.

حرك المؤشر فوق النقطة لمعرفة اسم المحطة.

ثم انقر لمعرفة أرصاد وتوقعات الطقس.

لتغيير الخارطة: اضغط على الأزرار الخضراء مع رمز الصليب الأسود للتكبير. على الزر الأخضر مع شرطة للتصغير، أو على الأسهم الخضراء للخرائط المجاورة.


METAR-TAF: